createdAt,value
2019-04-29T00:00:37.007Z,"   7.58"
2019-04-29T00:01:36.981Z,"   7.58"
2019-04-29T00:02:36.986Z,"   7.58"
2019-04-29T00:03:36.999Z,"   7.59"
2019-04-29T00:04:37.056Z,"   7.58"
2019-04-29T00:05:36.918Z,"   7.57"
2019-04-29T00:06:36.940Z,"   7.53"
2019-04-29T00:07:37.331Z,"   7.47"
2019-04-29T00:08:36.970Z,"   7.44"
2019-04-29T00:09:36.933Z,"   7.40"
2019-04-29T00:10:36.929Z,"   7.36"
2019-04-29T00:11:36.933Z,"   7.33"
2019-04-29T00:12:36.920Z,"   7.36"
2019-04-29T00:13:36.926Z,"   7.36"
2019-04-29T00:14:36.941Z,"   7.33"
2019-04-29T00:15:36.925Z,"   7.33"
2019-04-29T00:16:36.915Z,"   7.33"
2019-04-29T00:17:36.906Z,"   7.34"
2019-04-29T00:18:36.932Z,"   7.36"
2019-04-29T00:19:36.917Z,"   7.37"
2019-04-29T00:20:36.911Z,"   7.41"
2019-04-29T00:21:36.901Z,"   7.40"
2019-04-29T00:22:36.933Z,"   7.41"
2019-04-29T00:23:36.920Z,"   7.43"
2019-04-29T00:24:36.915Z,"   7.40"
2019-04-29T00:25:37.066Z,"   7.43"
2019-04-29T00:26:36.925Z,"   7.37"
2019-04-29T00:27:36.946Z,"   7.37"
2019-04-29T00:28:36.922Z,"   7.31"
2019-04-29T00:29:36.895Z,"   7.31"
2019-04-29T00:30:36.938Z,"   7.33"
2019-04-29T00:31:36.958Z,"   7.31"
2019-04-29T00:32:36.942Z,"   7.29"
2019-04-29T00:33:36.941Z,"   7.20"
2019-04-29T00:34:36.898Z,"   7.16"
2019-04-29T00:35:36.927Z,"   7.11"
2019-04-29T00:36:36.877Z,"   7.09"
2019-04-29T00:37:36.915Z,"   7.09"
2019-04-29T00:38:36.924Z,"   7.12"
2019-04-29T00:39:36.903Z,"   7.11"
2019-04-29T00:40:36.922Z,"   7.13"
2019-04-29T00:41:36.893Z,"   7.12"
2019-04-29T00:42:36.882Z,"   7.09"
2019-04-29T00:43:36.937Z,"   7.09"
2019-04-29T00:44:37.010Z,"   7.03"
2019-04-29T00:45:36.873Z,"   7.01"
2019-04-29T00:46:37.281Z,"   7.02"
2019-04-29T00:47:36.880Z,"   7.01"
2019-04-29T00:48:36.893Z,"   6.98"
2019-04-29T00:49:36.898Z,"   6.96"
2019-04-29T00:50:36.881Z,"   6.95"
2019-04-29T00:51:36.861Z,"   6.98"
2019-04-29T00:52:36.866Z,"   6.99"
2019-04-29T00:53:36.905Z,"   7.01"
2019-04-29T00:54:36.853Z,"   7.02"
2019-04-29T00:55:36.844Z,"   6.99"
2019-04-29T00:56:36.997Z,"   7.01"
2019-04-29T00:57:36.926Z,"   7.03"
2019-04-29T00:58:36.872Z,"   7.03"
2019-04-29T00:59:36.854Z,"   7.06"
2019-04-29T01:00:36.850Z,"   7.06"
2019-04-29T01:01:36.849Z,"   7.08"
2019-04-29T01:02:36.845Z,"   7.08"
2019-04-29T01:03:36.868Z,"   7.06"
2019-04-29T01:04:36.865Z,"   7.02"
2019-04-29T01:05:36.850Z,"   7.03"
2019-04-29T01:06:36.846Z,"   6.99"
2019-04-29T01:07:37.106Z,"   6.99"
2019-04-29T01:08:36.921Z,"   6.98"
2019-04-29T01:09:36.852Z,"   6.95"
2019-04-29T01:10:36.879Z,"   6.94"
2019-04-29T01:11:36.836Z,"   6.94"
2019-04-29T01:12:36.850Z,"   6.94"
2019-04-29T01:13:36.877Z,"   6.92"
2019-04-29T01:14:36.827Z,"   6.91"
2019-04-29T01:15:36.879Z,"   6.88"
2019-04-29T01:16:36.817Z,"   6.87"
2019-04-29T01:17:36.842Z,"   6.88"
2019-04-29T01:18:36.834Z,"   6.85"
2019-04-29T01:19:36.825Z,"   6.84"
2019-04-29T01:20:36.885Z,"   6.85"
2019-04-29T01:21:36.816Z,"   6.83"
2019-04-29T01:22:36.842Z,"   6.84"
2019-04-29T01:23:36.850Z,"   6.83"
2019-04-29T01:24:36.865Z,"   6.83"
2019-04-29T01:25:36.872Z,"   6.84"
2019-04-29T01:26:36.815Z,"   6.81"
2019-04-29T01:27:36.838Z,"   6.77"
2019-04-29T01:28:36.819Z,"   6.77"
2019-04-29T01:29:36.910Z,"   6.75"
2019-04-29T01:30:36.838Z,"   6.74"
2019-04-29T01:31:36.827Z,"   6.68"
2019-04-29T01:32:36.825Z,"   6.70"
2019-04-29T01:33:36.824Z,"   6.65"
2019-04-29T01:34:36.816Z,"   6.64"
2019-04-29T01:35:37.106Z,"   6.64"
2019-04-29T01:36:36.798Z,"   6.58"
2019-04-29T01:37:36.809Z,"   6.60"
2019-04-29T01:38:36.810Z,"   6.58"
2019-04-29T01:39:36.807Z,"   6.57"
2019-04-29T01:40:36.829Z,"   6.60"
2019-04-29T01:41:36.865Z,"   6.57"
2019-04-29T01:42:36.932Z,"   6.54"
2019-04-29T01:43:36.792Z,"   6.53"
2019-04-29T01:44:36.789Z,"   6.53"
2019-04-29T01:45:36.834Z,"   6.56"
2019-04-29T01:46:36.794Z,"   6.56"
2019-04-29T01:47:36.802Z,"   6.57"
2019-04-29T01:48:36.781Z,"   6.60"
2019-04-29T01:49:36.805Z,"   6.54"
2019-04-29T01:50:36.926Z,"   6.56"
2019-04-29T01:51:36.828Z,"   6.53"
2019-04-29T01:52:36.785Z,"   6.54"
2019-04-29T01:53:36.803Z,"   6.51"
2019-04-29T01:54:36.815Z,"   6.54"
2019-04-29T01:55:36.766Z,"   6.53"
2019-04-29T01:56:36.773Z,"   6.54"
2019-04-29T01:57:36.764Z,"   6.51"
2019-04-29T01:58:36.762Z,"   6.56"
2019-04-29T01:59:36.753Z,"   6.57"
2019-04-29T02:00:36.780Z,"   6.58"
2019-04-29T02:01:36.790Z,"   6.57"
2019-04-29T02:02:36.781Z,"   6.60"
2019-04-29T02:03:36.765Z,"   6.58"
2019-04-29T02:04:36.777Z,"   6.57"
2019-04-29T02:05:36.786Z,"   6.58"
2019-04-29T02:06:36.781Z,"   6.61"
2019-04-29T02:07:36.766Z,"   6.63"
2019-04-29T02:08:36.777Z,"   6.60"
2019-04-29T02:09:36.809Z,"   6.63"
2019-04-29T02:10:36.753Z,"   6.61"
2019-04-29T02:11:36.773Z,"   6.58"
2019-04-29T02:12:36.777Z,"   6.60"
2019-04-29T02:13:36.766Z,"   6.58"
2019-04-29T02:14:36.801Z,"   6.56"
2019-04-29T02:15:37.676Z,"   6.56"
2019-04-29T02:16:36.753Z,"   6.56"
2019-04-29T02:17:36.762Z,"   6.54"
2019-04-29T02:18:36.737Z,"   6.56"
2019-04-29T02:19:36.747Z,"   6.58"
2019-04-29T02:20:36.726Z,"   6.57"
2019-04-29T02:21:36.729Z,"   6.61"
2019-04-29T02:22:36.764Z,"   6.60"
2019-04-29T02:23:36.729Z,"   6.60"
2019-04-29T02:24:36.752Z,"   6.60"
2019-04-29T02:25:36.758Z,"   6.57"
2019-04-29T02:26:36.745Z,"   6.54"
2019-04-29T02:27:36.763Z,"   6.51"
2019-04-29T02:28:36.727Z,"   6.56"
2019-04-29T02:29:36.721Z,"   6.57"
2019-04-29T02:30:36.724Z,"   6.61"
2019-04-29T02:31:36.729Z,"   6.58"
2019-04-29T02:32:36.756Z,"   6.60"
2019-04-29T02:33:36.733Z,"   6.60"
2019-04-29T02:34:36.871Z,"   6.58"
2019-04-29T02:35:36.731Z,"   6.57"
2019-04-29T02:36:36.732Z,"   6.58"
2019-04-29T02:37:36.728Z,"   6.58"
2019-04-29T02:38:36.709Z,"   6.60"
2019-04-29T02:39:36.704Z,"   6.57"
2019-04-29T02:40:36.716Z,"   6.63"
2019-04-29T02:41:36.685Z,"   6.58"
2019-04-29T02:42:36.729Z,"   6.60"
2019-04-29T02:43:36.700Z,"   6.58"
2019-04-29T02:44:36.730Z,"   6.60"
2019-04-29T02:45:36.698Z,"   6.56"
2019-04-29T02:46:36.739Z,"   6.60"
2019-04-29T02:47:36.761Z,"   6.60"
2019-04-29T02:48:36.707Z,"   6.61"
2019-04-29T02:49:36.717Z,"   6.64"
2019-04-29T02:50:36.716Z,"   6.65"
2019-04-29T02:51:36.703Z,"   6.65"
2019-04-29T02:52:36.697Z,"   6.65"
2019-04-29T02:53:36.711Z,"   6.65"
2019-04-29T02:54:36.718Z,"   6.67"
2019-04-29T02:55:36.712Z,"   6.64"
2019-04-29T02:56:36.711Z,"   6.65"
2019-04-29T02:57:36.711Z,"   6.65"
2019-04-29T02:58:36.734Z,"   6.65"
2019-04-29T02:59:36.713Z,"   6.60"
2019-04-29T03:00:36.719Z,"   6.64"
2019-04-29T03:01:36.719Z,"   6.63"
2019-04-29T03:02:36.710Z,"   6.63"
2019-04-29T03:03:36.686Z,"   6.60"
2019-04-29T03:04:36.712Z,"   6.63"
2019-04-29T03:05:39.885Z,"   6.61"
2019-04-29T03:06:36.724Z,"   6.58"
2019-04-29T03:07:36.713Z,"   6.58"
2019-04-29T03:08:36.734Z,"   6.56"
2019-04-29T03:09:36.699Z,"   6.53"
2019-04-29T03:10:37.058Z,"   6.54"
2019-04-29T03:11:36.718Z,"   6.56"
2019-04-29T03:12:36.703Z,"   6.57"
2019-04-29T03:13:36.664Z,"   6.51"
2019-04-29T03:14:36.731Z,"   6.51"
2019-04-29T03:15:36.693Z,"   6.54"
2019-04-29T03:16:37.059Z,"   6.48"
2019-04-29T03:17:36.704Z,"   6.48"
2019-04-29T03:18:36.692Z,"   6.47"
2019-04-29T03:19:36.671Z,"   6.47"
2019-04-29T03:20:36.708Z,"   6.46"
2019-04-29T03:21:36.679Z,"   6.47"
2019-04-29T03:22:36.666Z,"   6.48"
2019-04-29T03:23:36.692Z,"   6.48"
2019-04-29T03:24:36.676Z,"   6.48"
2019-04-29T03:25:36.706Z,"   6.47"
2019-04-29T03:26:36.642Z,"   6.48"
2019-04-29T03:27:36.659Z,"   6.48"
2019-04-29T03:28:36.639Z,"   6.47"
2019-04-29T03:29:36.654Z,"   6.50"
2019-04-29T03:30:36.675Z,"   6.48"
2019-04-29T03:31:39.357Z,"   6.47"
2019-04-29T03:32:36.655Z,"   6.48"
2019-04-29T03:33:36.642Z,"   6.44"
2019-04-29T03:34:36.680Z,"   6.44"
2019-04-29T03:35:36.631Z,"   6.48"
2019-04-29T03:36:36.725Z,"   6.48"
2019-04-29T03:37:36.640Z,"   6.47"
2019-04-29T03:38:36.916Z,"   6.44"
2019-04-29T03:39:36.635Z,"   6.44"
2019-04-29T03:40:36.645Z,"   6.47"
2019-04-29T03:41:36.629Z,"   6.46"
2019-04-29T03:42:36.635Z,"   6.44"
2019-04-29T03:43:36.649Z,"   6.43"
2019-04-29T03:44:36.647Z,"   6.40"
2019-04-29T03:45:36.647Z,"   6.41"
2019-04-29T03:46:36.623Z,"   6.40"
2019-04-29T03:47:36.676Z,"   6.35"
2019-04-29T03:48:36.616Z,"   6.20"
2019-04-29T03:49:36.606Z,"   6.22"
2019-04-29T03:50:36.615Z,"   6.23"
2019-04-29T03:51:36.622Z,"   6.25"
2019-04-29T03:52:36.673Z,"   6.20"
2019-04-29T03:53:36.641Z,"   6.22"
2019-04-29T03:54:36.605Z,"   6.19"
2019-04-29T03:55:39.886Z,"   6.19"
2019-04-29T03:56:36.601Z,"   6.22"
2019-04-29T03:57:36.678Z,"   6.22"
2019-04-29T03:58:36.614Z,"   6.22"
2019-04-29T03:59:37.026Z,"   6.25"
2019-04-29T04:00:36.620Z,"   6.25"
2019-04-29T04:01:36.684Z,"   6.22"
2019-04-29T04:02:36.615Z,"   6.16"
2019-04-29T04:03:36.589Z,"   6.15"
2019-04-29T04:04:36.596Z,"   6.13"
2019-04-29T04:05:36.622Z,"   6.12"
2019-04-29T04:06:36.604Z,"   6.13"
2019-04-29T04:07:36.630Z,"   6.12"
2019-04-29T04:08:36.583Z,"   6.12"
2019-04-29T04:09:36.581Z,"   6.11"
2019-04-29T04:10:36.568Z,"   6.09"
2019-04-29T04:11:36.576Z,"   6.13"
2019-04-29T04:12:36.624Z,"   6.13"
2019-04-29T04:13:36.589Z,"   6.13"
2019-04-29T04:14:36.564Z,"   6.15"
2019-04-29T04:15:36.573Z,"   6.15"
2019-04-29T04:16:36.581Z,"   6.18"
2019-04-29T04:17:36.587Z,"   6.15"
2019-04-29T04:18:36.598Z,"   6.11"
2019-04-29T04:19:36.605Z,"   6.08"
2019-04-29T04:20:36.616Z,"   6.05"
2019-04-29T04:21:36.617Z,"   6.01"
2019-04-29T04:22:36.574Z,"   6.02"
2019-04-29T04:23:36.579Z,"   6.01"
2019-04-29T04:24:36.554Z,"   6.01"
2019-04-29T04:25:36.550Z,"   6.01"
2019-04-29T04:26:36.552Z,"   6.02"
2019-04-29T04:27:36.547Z,"   6.00"
2019-04-29T04:28:36.572Z,"   6.04"
2019-04-29T04:29:36.553Z,"   5.98"
2019-04-29T04:30:36.561Z,"   5.98"
2019-04-29T04:31:36.559Z,"   6.00"
2019-04-29T04:32:36.562Z,"   6.00"
2019-04-29T04:33:36.555Z,"   6.01"
2019-04-29T04:34:36.555Z,"   6.02"
2019-04-29T04:35:36.575Z,"   6.02"
2019-04-29T04:36:36.563Z,"   6.02"
2019-04-29T04:37:36.551Z,"   6.02"
2019-04-29T04:38:36.560Z,"   6.04"
2019-04-29T04:39:36.551Z,"   6.02"
2019-04-29T04:40:36.609Z,"   6.00"
2019-04-29T04:41:36.586Z,"   5.94"
2019-04-29T04:42:36.726Z,"   5.92"
2019-04-29T04:43:36.543Z,"   5.88"
2019-04-29T04:44:36.525Z,"   5.92"
2019-04-29T04:45:36.542Z,"   5.94"
2019-04-29T04:46:36.809Z,"   5.92"
2019-04-29T04:47:36.578Z,"   5.92"
2019-04-29T04:48:36.517Z,"   5.94"
2019-04-29T04:49:36.518Z,"   5.94"
2019-04-29T04:50:36.539Z,"   5.94"
2019-04-29T04:51:36.742Z,"   5.97"
2019-04-29T04:52:36.542Z,"   5.95"
2019-04-29T04:53:36.510Z,"   5.95"
2019-04-29T04:54:36.504Z,"   5.92"
2019-04-29T04:55:36.520Z,"   5.97"
2019-04-29T04:56:36.625Z,"   5.94"
2019-04-29T04:57:36.569Z,"   5.95"
2019-04-29T04:58:36.510Z,"   5.97"
2019-04-29T04:59:36.513Z,"   5.98"
2019-04-29T05:00:36.506Z,"   5.97"
2019-04-29T05:01:36.530Z,"   5.92"
2019-04-29T05:02:36.519Z,"   5.90"
2019-04-29T05:03:36.490Z,"   5.91"
2019-04-29T05:04:36.619Z,"   5.90"
2019-04-29T05:05:36.497Z,"   5.90"
2019-04-29T05:06:36.527Z,"   5.87"
2019-04-29T05:07:36.505Z,"   5.90"
2019-04-29T05:08:36.497Z,"   5.87"
2019-04-29T05:09:36.514Z,"   5.88"
2019-04-29T05:10:36.506Z,"   5.88"
2019-04-29T05:11:36.513Z,"   5.87"
2019-04-29T05:12:36.480Z,"   5.91"
2019-04-29T05:13:36.498Z,"   5.92"
2019-04-29T05:14:36.495Z,"   5.92"
2019-04-29T05:15:36.535Z,"   5.91"
2019-04-29T05:16:36.482Z,"   5.94"
2019-04-29T05:17:36.488Z,"   5.94"
2019-04-29T05:18:36.489Z,"   5.92"
2019-04-29T05:19:36.485Z,"   5.95"
2019-04-29T05:20:36.527Z,"   5.95"
2019-04-29T05:21:36.525Z,"   5.97"
2019-04-29T05:22:36.473Z,"   5.95"
2019-04-29T05:23:36.487Z,"   5.95"
2019-04-29T05:24:36.474Z,"   5.95"
2019-04-29T05:25:36.497Z,"   5.97"
2019-04-29T05:26:36.766Z,"   6.00"
2019-04-29T05:27:36.482Z,"   5.97"
2019-04-29T05:28:36.486Z,"   6.02"
2019-04-29T05:29:36.496Z,"   6.02"
2019-04-29T05:30:36.482Z,"   6.04"
2019-04-29T05:31:36.815Z,"   6.09"
2019-04-29T05:32:36.466Z,"   6.09"
2019-04-29T05:33:36.469Z,"   6.12"
2019-04-29T05:34:36.458Z,"   6.09"
2019-04-29T05:35:36.471Z,"   6.13"
2019-04-29T05:36:38.145Z,"   6.16"
2019-04-29T05:37:36.472Z,"   6.16"
2019-04-29T05:38:36.482Z,"   6.16"
2019-04-29T05:39:36.466Z,"   6.19"
2019-04-29T05:40:36.487Z,"   6.23"
2019-04-29T05:41:36.771Z,"   6.23"
2019-04-29T05:42:36.462Z,"   6.25"
2019-04-29T05:43:36.449Z,"   6.28"
2019-04-29T05:44:36.452Z,"   6.25"
2019-04-29T05:45:36.453Z,"   6.20"
2019-04-29T05:46:36.490Z,"   6.22"
2019-04-29T05:47:36.563Z,"   6.22"
2019-04-29T05:48:36.440Z,"   6.20"
2019-04-29T05:49:37.520Z,"   6.25"
2019-04-29T05:50:36.429Z,"   6.22"
2019-04-29T05:51:36.743Z,"   6.20"
2019-04-29T05:52:39.566Z,"   6.02"
2019-04-29T05:53:36.440Z,"   6.02"
2019-04-29T05:54:36.427Z,"   6.09"
2019-04-29T05:55:36.454Z,"   6.13"
2019-04-29T05:56:36.471Z,"   6.18"
2019-04-29T05:57:36.435Z,"   6.19"
2019-04-29T05:58:37.929Z,"   6.26"
2019-04-29T05:59:36.425Z,"   6.29"
2019-04-29T06:00:36.458Z,"   6.30"
2019-04-29T06:01:36.438Z,"   6.35"
2019-04-29T06:02:38.851Z,"   6.37"
2019-04-29T06:03:38.021Z,"   6.40"
2019-04-29T06:04:36.421Z,"   6.43"
2019-04-29T06:05:36.405Z,"   6.43"
2019-04-29T06:06:36.626Z,"   6.39"
2019-04-29T06:07:36.435Z,"   6.40"
2019-04-29T06:08:39.188Z,"   6.41"
2019-04-29T06:09:36.758Z,"   6.43"
2019-04-29T06:10:36.411Z,"   6.44"
2019-04-29T06:11:36.431Z,"   6.46"
2019-04-29T06:12:36.419Z,"   6.47"
2019-04-29T06:13:36.390Z,"   6.46"
2019-04-29T06:14:36.401Z,"   6.51"
2019-04-29T06:15:36.445Z,"   6.50"
2019-04-29T06:16:36.426Z,"   6.53"
2019-04-29T06:17:40.100Z,"   6.56"
2019-04-29T06:18:36.398Z,"   6.60"
2019-04-29T06:19:39.448Z,"   6.54"
2019-04-29T06:20:36.448Z,"   6.51"
2019-04-29T06:21:36.425Z,"   6.54"
2019-04-29T06:22:37.932Z,"   6.58"
2019-04-29T06:23:36.406Z,"   6.60"
2019-04-29T06:24:36.838Z,"   6.60"
2019-04-29T06:25:36.387Z,"   6.64"
2019-04-29T06:26:36.416Z,"   6.67"
2019-04-29T06:27:36.405Z,"   6.70"
2019-04-29T06:28:36.389Z,"   6.74"
2019-04-29T06:29:36.369Z,"   6.70"
2019-04-29T06:30:40.182Z,"   6.68"
2019-04-29T06:31:36.373Z,"   6.64"
2019-04-29T06:32:36.427Z,"   6.68"
2019-04-29T06:33:36.358Z,"   6.71"
2019-04-29T06:34:40.204Z,"   6.75"
2019-04-29T06:35:36.387Z,"   6.75"
2019-04-29T06:36:36.370Z,"   6.74"
2019-04-29T06:37:36.390Z,"   6.74"
2019-04-29T06:38:36.374Z,"   6.78"
2019-04-29T06:39:36.362Z,"   6.77"
2019-04-29T06:40:36.947Z,"   6.83"
2019-04-29T06:41:40.237Z,"   6.78"
2019-04-29T06:42:36.390Z,"   6.74"
2019-04-29T06:43:36.383Z,"   6.74"
2019-04-29T06:44:36.366Z,"   6.75"
2019-04-29T06:45:36.352Z,"   6.80"
2019-04-29T06:46:36.353Z,"   6.78"
2019-04-29T06:47:36.353Z,"   6.83"
2019-04-29T06:48:36.362Z,"   6.87"
2019-04-29T06:49:36.357Z,"   6.88"
2019-04-29T06:50:36.366Z,"   6.88"
2019-04-29T06:51:36.449Z,"   6.90"
2019-04-29T06:52:36.745Z,"   6.90"
2019-04-29T06:53:36.373Z,"   6.81"
2019-04-29T06:54:36.359Z,"   6.88"
2019-04-29T06:55:36.343Z,"   6.83"
2019-04-29T06:56:36.366Z,"   6.88"
2019-04-29T06:57:36.354Z,"   6.94"
2019-04-29T06:58:36.852Z,"   6.98"
2019-04-29T06:59:36.385Z,"   6.88"
2019-04-29T07:00:36.345Z,"   6.92"
2019-04-29T07:01:37.516Z,"   6.99"
2019-04-29T07:02:36.369Z,"   7.05"
2019-04-29T07:03:36.597Z,"   7.02"
2019-04-29T07:04:39.511Z,"   7.03"
2019-04-29T07:05:36.325Z,"   6.96"
2019-04-29T07:06:36.320Z,"   6.96"
2019-04-29T07:07:36.339Z,"   6.99"
2019-04-29T07:08:36.370Z,"   6.99"
2019-04-29T07:09:36.342Z,"   7.02"
2019-04-29T07:10:36.328Z,"   6.95"
2019-04-29T07:11:36.963Z,"   6.98"
2019-04-29T07:12:36.354Z,"   7.06"
2019-04-29T07:13:37.186Z,"   7.08"
2019-04-29T07:14:38.539Z,"   7.13"
2019-04-29T07:15:36.315Z,"   7.19"
2019-04-29T07:16:36.308Z,"   7.23"
2019-04-29T07:17:40.827Z,"   7.12"
2019-04-29T07:18:39.828Z,"   7.18"
2019-04-29T07:19:36.309Z,"   7.23"
2019-04-29T07:20:37.235Z,"   7.27"
2019-04-29T07:21:36.350Z,"   7.31"
2019-04-29T07:22:36.332Z,"   7.34"
2019-04-29T07:23:36.298Z,"   7.37"
2019-04-29T07:24:36.326Z,"   7.37"
2019-04-29T07:25:36.323Z,"   7.20"
2019-04-29T07:26:36.305Z,"   7.20"
2019-04-29T07:27:43.010Z,"   7.16"
2019-04-29T07:28:36.283Z,"   7.12"
2019-04-29T07:29:38.024Z,"   7.13"
2019-04-29T07:30:39.189Z,"   7.20"
2019-04-29T07:31:36.283Z,"   7.22"
2019-04-29T07:32:36.282Z,"   7.18"
2019-04-29T07:33:36.294Z,"   7.20"
2019-04-29T07:34:39.359Z,"   7.23"
2019-04-29T07:35:38.131Z,"   7.24"
2019-04-29T07:36:36.270Z,"   7.23"
2019-04-29T07:37:36.294Z,"   7.26"
2019-04-29T07:38:41.521Z,"   7.27"
2019-04-29T07:39:36.312Z,"   7.34"
2019-04-29T07:40:38.730Z,"   7.34"
2019-04-29T07:41:36.262Z,"   7.44"
2019-04-29T07:42:36.354Z,"   7.47"
2019-04-29T07:43:38.543Z,"   7.48"
2019-04-29T07:44:43.851Z,"   7.54"
2019-04-29T07:45:43.958Z,"   7.59"
2019-04-29T07:46:55.168Z,"   7.57"
2019-04-29T07:47:36.262Z,"   7.43"
2019-04-29T07:48:36.813Z,"   7.48"
2019-04-29T07:49:36.265Z,"   7.54"
2019-04-29T07:50:36.313Z,"   7.61"
2019-04-29T07:51:39.504Z,"   7.64"
2019-04-29T07:52:36.250Z,"   7.57"
2019-04-29T07:53:44.734Z,"   7.61"
2019-04-29T07:54:36.241Z,"   7.62"
2019-04-29T07:55:36.285Z,"   7.59"
2019-04-29T07:56:37.849Z,"   7.64"
2019-04-29T07:57:36.494Z,"   7.59"
2019-04-29T07:58:36.269Z,"   7.59"
2019-04-29T07:59:38.326Z,"   7.69"
2019-04-29T08:00:36.334Z,"   7.72"
2019-04-29T08:01:36.247Z,"   7.78"
2019-04-29T08:02:36.393Z,"   7.84"
2019-04-29T08:03:36.280Z,"   7.85"
2019-04-29T08:04:36.241Z,"   7.89"
2019-04-29T08:05:36.294Z,"   7.95"
2019-04-29T08:06:38.086Z,"   7.98"
2019-04-29T08:07:36.245Z,"   8.05"
2019-04-29T08:08:36.261Z,"   8.06"
2019-04-29T08:09:39.850Z,"   8.13"
2019-04-29T08:10:36.450Z,"   8.17"
2019-04-29T08:11:36.229Z,"   8.24"
2019-04-29T08:12:36.240Z,"   8.17"
2019-04-29T08:13:36.226Z,"   8.12"
2019-04-29T08:14:36.221Z,"   8.16"
2019-04-29T08:15:36.751Z,"   8.21"
2019-04-29T08:16:36.233Z,"   8.31"
2019-04-29T08:17:36.239Z,"   8.34"
2019-04-29T08:18:36.492Z,"   8.38"
2019-04-29T08:19:36.249Z,"   8.34"
2019-04-29T08:20:39.822Z,"   8.37"
2019-04-29T08:21:36.210Z,"   8.43"
2019-04-29T08:22:36.350Z,"   8.49"
2019-04-29T08:23:41.155Z,"   8.55"
2019-04-29T08:24:37.493Z,"   8.54"
2019-04-29T08:25:36.241Z,"   8.47"
2019-04-29T08:26:38.100Z,"   8.49"
2019-04-29T08:27:40.749Z,"   8.57"
2019-04-29T08:28:36.209Z,"   8.62"
2019-04-29T08:29:37.380Z,"   8.69"
2019-04-29T08:30:36.224Z,"   8.72"
2019-04-29T08:31:36.259Z,"   8.72"
2019-04-29T08:32:36.548Z,"   8.74"
2019-04-29T08:33:36.325Z,"   8.80"
2019-04-29T08:34:36.257Z,"   8.85"
2019-04-29T08:35:36.779Z,"   8.92"
2019-04-29T08:36:36.253Z,"   8.92"
2019-04-29T08:37:36.257Z,"   8.95"
2019-04-29T08:38:36.196Z,"   8.98"
2019-04-29T08:39:36.229Z,"   9.02"
2019-04-29T08:40:36.260Z,"   9.00"
2019-04-29T08:41:36.430Z,"   9.06"
2019-04-29T08:42:37.223Z,"   9.06"
2019-04-29T08:43:36.194Z,"   9.04"
2019-04-29T08:44:36.191Z,"   9.14"
2019-04-29T08:45:39.112Z,"   9.17"
2019-04-29T08:46:36.234Z,"   9.20"
2019-04-29T08:47:36.218Z,"   9.29"
2019-04-29T08:48:36.178Z,"   9.31"
2019-04-29T08:49:36.192Z,"   9.35"
2019-04-29T08:50:36.186Z,"   9.40"
2019-04-29T08:51:36.232Z,"   9.45"
2019-04-29T08:52:36.177Z,"   9.52"
2019-04-29T08:53:36.184Z,"   9.57"
2019-04-29T08:54:37.200Z,"   9.51"
2019-04-29T08:55:36.465Z,"   9.54"
2019-04-29T08:56:36.249Z,"   9.58"
2019-04-29T08:57:36.625Z,"   9.59"
2019-04-29T08:58:39.156Z,"   9.57"
2019-04-29T08:59:37.104Z,"   9.65"
2019-04-29T09:00:36.166Z,"   9.76"
2019-04-29T09:01:36.495Z,"   9.83"
2019-04-29T09:02:36.168Z,"   9.90"
2019-04-29T09:03:40.344Z,"   9.93"
2019-04-29T09:04:36.166Z,"   9.94"
2019-04-29T09:05:36.169Z,"   9.89"
2019-04-29T09:06:36.163Z,"   9.93"
2019-04-29T09:07:36.201Z,"  10.03"
2019-04-29T09:08:36.192Z,"  10.07"
2019-04-29T09:09:36.153Z,"  10.10"
2019-04-29T09:10:36.732Z,"  10.19"
2019-04-29T09:11:36.157Z,"  10.25"
2019-04-29T09:12:36.141Z,"  10.25"
2019-04-29T09:13:36.189Z,"  10.38"
2019-04-29T09:14:36.252Z,"  10.51"
2019-04-29T09:15:36.238Z,"  10.34"
2019-04-29T09:16:36.145Z,"  10.27"
2019-04-29T09:17:36.153Z,"  10.24"
2019-04-29T09:18:36.160Z,"  10.32"
2019-04-29T09:19:39.275Z,"  10.42"
2019-04-29T09:20:36.159Z,"  10.53"
2019-04-29T09:21:36.182Z,"  10.51"
2019-04-29T09:22:36.518Z,"  10.56"
2019-04-29T09:23:36.166Z,"  10.62"
2019-04-29T09:24:36.281Z,"  10.69"
2019-04-29T09:25:36.141Z,"  10.75"
2019-04-29T09:26:36.161Z,"  10.65"
2019-04-29T09:27:36.145Z,"  10.62"
2019-04-29T09:28:36.127Z,"  10.75"
2019-04-29T09:29:36.177Z,"  10.79"
2019-04-29T09:30:38.593Z,"  10.69"
2019-04-29T09:31:36.174Z,"  10.72"
2019-04-29T09:32:38.149Z,"  10.69"
2019-04-29T09:33:36.173Z,"  10.75"
2019-04-29T09:34:36.106Z,"  10.80"
2019-04-29T09:35:38.655Z,"  10.80"
2019-04-29T09:36:36.234Z,"  10.87"
2019-04-29T09:37:36.162Z,"  10.94"
2019-04-29T09:38:36.932Z,"  11.06"
2019-04-29T09:39:42.868Z,"  11.07"
2019-04-29T09:40:36.116Z,"  11.03"
2019-04-29T09:41:36.161Z,"  10.97"
2019-04-29T09:42:36.178Z,"  10.94"
2019-04-29T09:43:36.168Z,"  10.96"
2019-04-29T09:44:40.391Z,"  11.04"
2019-04-29T09:45:36.086Z,"  11.11"
2019-04-29T09:46:36.084Z,"  11.15"
2019-04-29T09:47:36.162Z,"  11.17"
2019-04-29T09:48:36.098Z,"  11.12"
2019-04-29T09:49:36.099Z,"  11.14"
2019-04-29T09:50:39.277Z,"  11.10"
2019-04-29T09:51:36.079Z,"  11.15"
2019-04-29T09:52:36.193Z,"  11.20"
2019-04-29T09:53:36.097Z,"  11.37"
2019-04-29T09:54:36.079Z,"  11.39"
2019-04-29T09:55:39.922Z,"  11.42"
2019-04-29T09:56:36.098Z,"  11.45"
2019-04-29T09:57:36.074Z,"  11.48"
2019-04-29T09:58:36.074Z,"  11.55"
2019-04-29T09:59:36.163Z,"  11.55"
2019-04-29T10:00:36.226Z,"  11.45"
2019-04-29T10:01:36.088Z,"  11.55"
2019-04-29T10:02:36.133Z,"  11.58"
2019-04-29T10:03:36.066Z,"  11.69"
2019-04-29T10:04:36.118Z,"  11.61"
2019-04-29T10:05:36.319Z,"  11.66"
2019-04-29T10:06:36.145Z,"  11.69"
2019-04-29T10:07:36.090Z,"  11.75"
2019-04-29T10:08:36.094Z,"  11.76"
2019-04-29T10:09:36.106Z,"  11.87"
2019-04-29T10:10:37.413Z,"  11.92"
2019-04-29T10:11:36.074Z,"  11.86"
2019-04-29T10:12:36.061Z,"  11.79"
2019-04-29T10:13:36.079Z,"  11.90"
2019-04-29T10:14:36.635Z,"  12.03"
2019-04-29T10:15:36.054Z,"  12.07"
2019-04-29T10:16:37.072Z,"  12.01"
2019-04-29T10:17:36.045Z,"  12.07"
2019-04-29T10:18:36.075Z,"  12.13"
2019-04-29T10:19:36.030Z,"  12.24"
2019-04-29T10:20:36.069Z,"  12.25"
2019-04-29T10:21:36.082Z,"  12.17"
2019-04-29T10:22:36.090Z,"  12.20"
2019-04-29T10:23:36.076Z,"  12.18"
2019-04-29T10:24:36.050Z,"  12.23"
2019-04-29T10:25:36.025Z,"  12.18"
2019-04-29T10:26:36.087Z,"  12.21"
2019-04-29T10:27:36.209Z,"  12.25"
2019-04-29T10:28:36.050Z,"  12.28"
2019-04-29T10:29:36.047Z,"  12.37"
2019-04-29T10:30:36.079Z,"  12.24"
2019-04-29T10:31:36.141Z,"  12.21"
2019-04-29T10:32:37.804Z,"  12.27"
2019-04-29T10:33:36.098Z,"  12.28"
2019-04-29T10:34:36.029Z,"  12.35"
2019-04-29T10:35:36.028Z,"  12.42"
2019-04-29T10:36:36.069Z,"  12.49"
2019-04-29T10:37:36.017Z,"  12.60"
2019-04-29T10:38:36.015Z,"  12.44"
2019-04-29T10:39:36.007Z,"  12.55"
2019-04-29T10:40:36.012Z,"  12.63"
2019-04-29T10:41:39.842Z,"  12.57"
2019-04-29T10:42:36.057Z,"  12.65"
2019-04-29T10:43:36.015Z,"  12.65"
2019-04-29T10:44:37.599Z,"  12.62"
2019-04-29T10:45:35.997Z,"  12.70"
2019-04-29T10:46:36.039Z,"  12.60"
2019-04-29T10:47:35.998Z,"  12.63"
2019-04-29T10:48:36.051Z,"  12.59"
2019-04-29T10:49:39.165Z,"  12.48"
2019-04-29T10:50:36.017Z,"  12.59"
2019-04-29T10:51:36.137Z,"  12.56"
2019-04-29T10:52:38.560Z,"  12.62"
2019-04-29T10:53:36.038Z,"  12.66"
2019-04-29T10:54:35.992Z,"  12.70"
2019-04-29T10:55:35.980Z,"  12.70"
2019-04-29T10:56:39.370Z,"  12.77"
2019-04-29T10:57:35.998Z,"  12.67"
2019-04-29T10:58:36.002Z,"  12.70"
2019-04-29T10:59:36.381Z,"  12.73"
2019-04-29T11:00:35.994Z,"  12.62"
2019-04-29T11:01:35.976Z,"  12.70"
2019-04-29T11:02:36.027Z,"  12.72"
2019-04-29T11:03:36.030Z,"  12.84"
2019-04-29T11:04:37.894Z,"  12.97"
2019-04-29T11:05:35.997Z,"  12.88"
2019-04-29T11:06:36.979Z,"  12.88"
2019-04-29T11:07:35.997Z,"  12.73"
2019-04-29T11:08:38.149Z,"  12.62"
2019-04-29T11:09:35.977Z,"  12.77"
2019-04-29T11:10:36.102Z,"  12.73"
2019-04-29T11:11:36.017Z,"  12.80"
2019-04-29T11:12:35.958Z,"  12.93"
2019-04-29T11:13:35.961Z,"  12.99"
2019-04-29T11:14:37.647Z,"  13.00"
2019-04-29T11:15:35.994Z,"  13.04"
2019-04-29T11:16:46.291Z,"  12.94"
2019-04-29T11:17:39.581Z,"  12.93"
2019-04-29T11:18:35.956Z,"  12.99"
2019-04-29T11:19:39.917Z,"  13.00"
2019-04-29T11:20:36.007Z,"  13.06"
2019-04-29T11:21:38.781Z,"  13.08"
2019-04-29T11:22:38.294Z,"  13.10"
2019-04-29T11:23:35.957Z,"  13.18"
2019-04-29T11:24:36.068Z,"  13.21"